.
WxDataArchive / Data Records for 2011-07-23
2011-07-22 July 2011 2011-07-24

Data Records for Saturday, 23 July 2011

Time	Temp	Chill	HIndex	Humid	Dewpt	 Wind 	HiWind	WindDir	Rain 	Barom 
-----	----	-----	------	-----	-----	------	------	-------	-----	----- 
00:00	79.6	79.6	83.2	78	72.1	0	1	112	0.00	29.896 
00:05	79.8	79.8	83.6	78	72.3	0	0	---	0.00	29.896 
00:10	79.8	79.8	83.6	78	72.3	0	0	---	0.00	29.896 
00:15	79.8	79.8	83.6	78	72.3	0	0	---	0.00	29.902 
00:20	79.8	79.8	83.6	78	72.3	0	0	---	0.00	29.902 
00:25	79.8	79.8	83.7	79	72.7	0	0	---	0.00	29.902 
00:30	79.9	79.9	83.9	79	72.8	0	0	---	0.00	29.898 
00:35	79.9	79.9	83.9	79	72.8	0	0	---	0.00	29.898 
00:40	79.9	79.9	83.9	79	72.8	0	1	112	0.00	29.898 
00:45	79.9	79.9	84.0	80	73.2	0	0	---	0.00	29.895 
00:50	79.9	79.9	84.0	80	73.2	0	0	---	0.00	29.895 
00:55	79.9	79.9	84.0	80	73.2	0	0	---	0.00	29.895 
01:00	79.9	79.9	84.0	80	73.2	0	0	---	0.00	29.894 
01:05	79.9	79.9	84.0	80	73.2	0	0	---	0.00	29.894 
01:10	79.9	79.9	83.9	79	72.8	0	0	---	0.00	29.894 
01:15	80.1	80.1	84.3	79	73.0	0	1	112	0.00	29.892 
01:20	80.1	80.1	84.3	79	73.0	0	1	112	0.00	29.892 
01:25	80.3	80.3	84.7	79	73.2	0	1	112	0.00	29.892 
01:30	80.7	80.7	85.6	79	73.6	2	9	270	0.00	29.925 
01:35	80.7	80.7	84.7	74	71.6	4	10	270	0.00	29.925 
01:40	79.8	79.8	82.7	71	69.5	5	10	270	0.00	29.925 
01:45	77.9	77.9	80.1	79	70.8	4	10	270	0.04	29.925 
01:50	76.5	76.5	77.5	84	71.3	2	4	292	0.03	29.925 
01:55	75.8	75.8	76.0	87	71.6	0	1	292	0.00	29.925 
02:00	75.6	75.6	75.4	89	72.1	0	1	292	0.00	29.900 
02:05	75.3	75.3	74.7	90	72.2	0	0	---	0.01	29.900 
02:10	75.3	75.3	74.5	91	72.5	0	1	292	0.00	29.900 
02:15	75.1	75.1	74.1	91	72.3	0	0	---	0.01	29.911 
02:20	75.1	75.1	73.9	92	72.6	0	0	---	0.00	29.911 
02:25	74.9	74.9	74.9	92	72.4	0	0	---	0.00	29.911 
02:30	74.9	74.9	74.9	92	72.4	0	0	---	0.00	29.901 
02:35	74.9	74.9	74.9	92	72.4	0	0	---	0.00	29.901 
02:40	74.9	74.9	74.9	93	72.7	0	0	---	0.00	29.901 
02:45	74.9	74.9	74.9	93	72.7	0	0	---	0.00	29.895 
02:50	74.7	74.7	74.7	93	72.5	0	0	---	0.01	29.895 
02:55	74.7	74.7	74.7	93	72.5	0	0	---	0.00	29.895 
03:00	74.7	74.7	74.7	93	72.5	0	0	---	0.00	29.893 
03:05	74.7	74.7	74.7	93	72.5	0	0	---	0.00	29.893 
03:10	74.7	74.7	74.7	94	72.9	0	0	---	0.00	29.893 
03:15	74.7	74.7	74.7	94	72.9	0	0	---	0.00	29.896 
03:20	74.7	74.7	74.7	94	72.9	0	0	---	0.00	29.896 
03:25	74.7	74.7	74.7	94	72.9	0	0	---	0.00	29.896 
03:30	74.7	74.7	74.7	94	72.9	0	0	---	0.00	29.913 
03:35	74.7	74.7	74.7	94	72.9	0	0	---	0.00	29.913 
03:40	74.7	74.7	74.7	94	72.9	0	0	---	0.00	29.913 
03:45	74.7	74.7	74.7	94	72.9	0	0	---	0.00	29.923 
03:50	74.9	74.9	74.9	94	73.0	0	0	---	0.00	29.923 
03:55	74.9	74.9	74.9	95	73.4	0	0	---	0.00	29.923 
04:00	74.9	74.9	74.9	94	73.0	0	0	---	0.00	29.928 
04:05	74.9	74.9	74.9	95	73.4	0	0	---	0.00	29.928 
04:10	74.7	74.7	74.7	95	73.2	0	0	---	0.00	29.928 
04:15	74.7	74.7	74.7	95	73.2	0	0	---	0.00	29.916 
04:20	74.7	74.7	74.7	95	73.2	0	0	---	0.00	29.916 
04:25	74.7	74.7	74.7	95	73.2	0	0	---	0.00	29.916 
04:30	74.6	74.6	74.6	95	73.1	0	0	---	0.00	29.920 
04:35	74.6	74.6	74.6	95	73.1	0	0	---	0.00	29.920 
04:40	74.6	74.6	74.6	95	73.1	0	0	---	0.00	29.920 
04:45	74.6	74.6	74.6	95	73.1	0	0	---	0.00	29.926 
04:50	74.6	74.6	74.6	95	73.1	0	0	---	0.00	29.926 
04:55	74.6	74.6	74.6	95	73.1	0	0	---	0.00	29.926 
05:00	74.6	74.6	74.6	95	73.1	0	0	---	0.00	29.934 
05:05	74.6	74.6	74.6	95	73.1	0	0	---	0.00	29.934 
05:10	74.6	74.6	74.6	95	73.1	0	0	---	0.00	29.934 
05:15	74.4	74.4	74.4	95	72.9	0	0	---	0.00	29.939 
05:20	74.4	74.4	74.4	95	72.9	0	0	---	0.00	29.939 
05:25	74.4	74.4	74.4	95	72.9	0	0	---	0.00	29.939 
05:30	74.4	74.4	74.4	95	72.9	0	0	---	0.00	29.943 
05:35	74.4	74.4	74.4	95	72.9	0	0	---	0.00	29.943 
05:40	74.6	74.6	74.6	95	73.1	0	0	---	0.00	29.943 
05:45	74.6	74.6	74.6	95	73.1	0	0	---	0.00	29.946 
05:50	74.4	74.4	74.4	95	72.9	0	0	---	0.00	29.946 
05:55	74.4	74.4	74.4	95	72.9	0	0	---	0.00	29.946 
06:00	74.4	74.4	74.4	95	72.9	0	0	---	0.00	29.954 
06:05	74.4	74.4	74.4	95	72.9	0	0	---	0.00	29.954 
06:10	74.4	74.4	74.4	95	72.9	0	0	---	0.00	29.954 
06:15	74.4	74.4	74.4	95	72.9	0	0	---	0.00	29.955 
06:20	74.4	74.4	74.4	96	73.2	0	0	---	0.00	29.955 
06:25	74.4	74.4	74.4	95	72.9	0	0	---	0.00	29.955 
06:30	74.4	74.4	74.4	96	73.2	0	0	---	0.00	29.954 
06:35	74.4	74.4	74.4	96	73.2	0	0	---	0.00	29.954 
06:40	74.4	74.4	74.4	96	73.2	0	0	---	0.00	29.954 
06:45	74.4	74.4	74.4	96	73.2	0	0	---	0.00	29.950 
06:50	74.4	74.4	74.4	96	73.2	0	0	---	0.00	29.950 
06:55	74.6	74.6	74.6	96	73.4	0	0	---	0.00	29.950 
07:00	74.6	74.6	74.6	96	73.4	0	0	---	0.00	29.941 
07:05	74.6	74.6	74.6	96	73.4	0	0	---	0.00	29.941 
07:10	74.7	74.7	74.7	96	73.5	0	0	---	0.00	29.941 
07:15	74.9	74.9	74.9	96	73.7	0	0	---	0.00	29.944 
07:20	75.1	75.1	73.2	96	73.9	0	1	292	0.00	29.944 
07:25	75.3	75.3	73.7	96	74.1	0	1	22	0.00	29.944 
07:30	75.3	75.3	73.7	96	74.1	0	1	22	0.00	29.960 
07:35	75.1	75.1	73.2	96	73.9	0	1	22	0.00	29.960 
07:40	74.9	74.9	74.9	96	73.7	0	1	22	0.00	29.960 
07:45	74.9	74.9	74.9	96	73.7	0	1	22	0.00	29.974 
07:50	74.7	74.7	74.7	96	73.5	0	0	---	0.00	29.974 
07:55	74.7	74.7	74.7	96	73.5	0	0	---	0.00	29.974 
08:00	74.9	74.9	74.9	96	73.7	0	0	---	0.00	29.969 
08:05	74.9	74.9	74.9	96	73.7	0	0	---	0.00	29.969 
08:10	75.1	75.1	73.2	96	73.9	0	0	---	0.00	29.969 
08:15	75.3	75.3	73.7	96	74.1	0	0	---	0.00	29.974 
08:20	75.4	75.4	73.9	96	74.2	0	0	---	0.00	29.974 
08:25	75.8	75.8	74.8	96	74.6	0	0	---	0.00	29.974 
08:30	75.8	75.8	74.8	96	74.6	0	0	---	0.00	29.977 
08:35	76.0	76.0	75.3	96	74.8	0	0	---	0.00	29.977 
08:40	76.1	76.1	75.6	96	74.9	0	0	---	0.00	29.977 
08:45	76.3	76.3	76.1	96	75.1	0	0	---	0.00	29.982 
08:50	76.5	76.5	76.6	96	75.3	0	1	22	0.00	29.982 
08:55	76.5	76.5	76.7	95	75.0	0	1	22	0.00	29.982 
09:00	76.5	76.5	76.7	95	75.0	0	0	---	0.00	29.975 
09:05	76.7	76.7	77.2	95	75.2	0	0	---	0.00	29.975 
09:10	76.8	76.8	77.5	94	74.9	0	0	---	0.00	29.975 
09:15	77.2	77.2	78.5	94	75.3	0	0	---	0.00	29.984 
09:20	77.7	77.7	79.8	92	75.2	0	0	---	0.00	29.984 
09:25	78.3	78.3	81.2	90	75.1	0	0	---	0.00	29.984 
09:30	79.0	79.0	82.9	89	75.5	0	1	22	0.00	29.982 
09:35	79.6	79.6	83.8	84	74.3	0	2	22	0.00	29.982 
09:40	80.1	80.1	84.2	78	72.6	1	4	22	0.00	29.982 
09:45	81.2	81.2	86.1	76	72.9	0	2	22	0.00	29.971 
09:50	82.4	82.4	87.9	73	72.9	0	3	22	0.00	29.971 
09:55	83.2	83.2	89.4	72	73.2	0	3	22	0.00	29.971 
10:00	83.8	83.8	90.0	70	72.9	0	2	22	0.00	29.973 
10:05	84.1	84.1	90.4	69	72.8	1	2	22	0.00	29.973 
10:10	84.5	84.5	90.5	67	72.3	1	4	22	0.00	29.973 
10:15	84.7	84.7	90.6	66	72.1	2	5	22	0.00	29.976 
10:20	85.3	85.3	91.9	66	72.6	1	4	68	0.00	29.976 
10:25	85.7	85.7	92.3	65	72.5	1	5	112	0.00	29.976 
10:30	85.5	85.5	91.9	65	72.4	1	5	45	0.00	29.974 
10:35	85.7	85.7	91.6	63	71.6	2	4	68	0.00	29.974 
10:40	85.9	85.9	92.0	63	71.8	2	5	68	0.00	29.974 
10:45	86.3	86.3	92.4	62	71.7	1	5	90	0.00	29.978 
10:50	87.0	87.0	93.5	61	71.9	1	3	112	0.00	29.978 
10:55	87.2	87.2	94.3	62	72.6	1	7	90	0.00	29.978 
11:00	87.2	87.2	94.8	63	73.0	2	5	68	0.00	29.975 
11:05	87.2	87.2	94.3	62	72.6	2	5	68	0.00	29.975 
11:10	87.0	87.0	94.3	63	72.8	2	5	68	0.00	29.975 
11:15	87.2	87.2	94.8	63	73.0	2	5	68	0.00	29.968 
11:20	87.2	87.2	94.8	63	73.0	2	4	68	0.00	29.968 
11:25	87.4	87.4	95.7	64	73.7	1	4	68	0.00	29.968 
11:30	87.4	87.4	96.1	65	74.2	1	5	68	0.00	29.971 
11:35	87.2	87.2	96.1	66	74.4	1	5	112	0.00	29.971 
11:40	87.2	87.2	96.6	67	74.9	1	3	112	0.00	29.971 
11:45	87.4	87.4	97.1	67	75.1	1	5	68	0.00	29.968 
11:50	88.2	88.2	99.1	67	75.8	1	4	90	0.00	29.968 
11:55	88.6	88.6	99.0	65	75.3	2	5	112	0.00	29.968 
12:00	89.3	89.3	100.8	65	76.0	1	5	112	0.00	29.966 
12:05	89.9	89.9	101.8	64	76.1	1	3	68	0.00	29.966 
12:10	90.3	90.3	102.8	64	76.4	2	4	68	0.00	29.966 
12:15	89.9	89.9	101.8	64	76.1	2	4	68	0.00	29.960 
12:20	89.9	89.9	102.4	65	76.5	1	3	90	0.00	29.960 
12:25	90.3	90.3	102.2	63	76.0	1	3	90	0.00	29.960 
12:30	90.3	90.3	102.8	64	76.4	0	2	90	0.00	29.958 
12:35	90.1	90.1	102.3	64	76.2	0	2	90	0.00	29.958 
12:40	89.5	89.5	100.2	63	75.2	1	3	270	0.00	29.958 
12:45	89.3	89.3	100.8	65	76.0	0	3	270	0.00	29.956 
12:50	90.1	90.1	101.1	62	75.3	1	4	270	0.00	29.956 
12:55	90.7	90.7	101.4	60	74.9	1	5	90	0.00	29.956 
13:00	91.2	91.2	101.4	58	74.3	1	5	270	0.00	29.955 
13:05	91.6	91.6	103.0	59	75.2	1	4	270	0.00	29.955 
13:10	92.1	92.1	103.6	58	75.2	1	3	90	0.00	29.955 
13:15	92.5	92.5	103.9	57	75.0	1	4	315	0.00	29.947 
13:20	93.2	93.2	103.7	54	74.0	1	4	270	0.00	29.947 
13:25	93.2	93.2	103.7	54	74.0	1	3	270	0.00	29.947 
13:30	92.9	92.9	102.3	53	73.2	1	4	270	0.00	29.945 
13:35	92.7	92.7	102.5	54	73.6	2	3	270	0.00	29.945 
13:40	93.2	93.2	103.7	54	74.0	1	4	270	0.00	29.945 
13:45	93.8	93.8	104.4	53	74.0	2	5	270	0.00	29.940 
13:50	94.0	94.0	103.6	51	73.1	2	4	270	0.00	29.940 
13:55	94.0	94.0	102.9	50	72.5	2	6	270	0.00	29.940 
14:00	94.5	94.5	104.0	50	72.9	1	3	270	0.00	29.935 
14:05	94.9	94.9	104.3	49	72.7	2	6	270	0.00	29.935 
14:10	93.8	93.8	103.1	51	72.9	2	4	270	0.00	29.935 
14:15	93.2	93.2	102.4	52	72.9	1	3	292	0.00	29.930 
14:20	93.2	93.2	101.7	51	72.3	2	6	292	0.00	29.930 
14:25	92.9	92.9	100.5	50	71.5	2	4	270	0.00	29.930 
14:30	92.7	92.7	100.6	51	71.9	2	3	270	0.00	29.928 
14:35	92.7	92.7	101.2	52	72.4	2	5	270	0.00	29.928 
14:40	92.9	92.9	101.1	51	72.1	1	4	315	0.00	29.928 
14:45	92.5	92.5	100.8	52	72.3	1	4	315	0.00	29.928 
14:50	91.6	91.6	99.9	54	72.6	2	5	292	0.00	29.928 
14:55	92.1	92.1	100.5	53	72.5	2	5	292	0.00	29.928 
15:00	92.3	92.3	100.3	52	72.1	3	5	292	0.00	29.929 
15:05	91.8	91.8	99.2	52	71.6	2	5	315	0.00	29.929 
15:10	91.6	91.6	99.4	53	72.0	2	5	270	0.00	29.929 
15:15	91.6	91.6	99.4	53	72.0	1	3	315	0.00	29.924 
15:20	92.3	92.3	100.3	52	72.1	1	4	292	0.00	29.924 
15:25	93.2	93.2	101.1	50	71.7	2	5	292	0.00	29.924 
15:30	93.6	93.6	101.4	49	71.5	2	5	270	0.00	29.917 
15:35	93.2	93.2	101.1	50	71.7	2	5	270	0.00	29.917 
15:40	93.4	93.4	100.9	49	71.3	2	5	270	0.00	29.917 
15:45	94.3	94.3	102.3	48	71.5	2	4	292	0.00	29.916 
15:50	95.1	95.1	102.7	46	71.0	2	5	270	0.00	29.916 
15:55	95.4	95.4	104.1	47	71.9	1	4	270	0.00	29.916 
16:00	94.9	94.9	103.0	47	71.5	2	5	270	0.00	29.904 
16:05	95.1	95.1	102.7	46	71.0	2	5	270	0.00	29.904 
16:10	95.1	95.1	103.4	47	71.6	2	4	270	0.00	29.904 
16:15	94.9	94.9	101.7	45	70.2	2	5	270	0.00	29.905 
16:20	94.9	94.9	102.3	46	70.8	3	7	270	0.00	29.905 
16:25	94.9	94.9	102.3	46	70.8	2	5	270	0.00	29.905 
16:30	95.4	95.4	102.7	45	70.6	2	6	292	0.00	29.903 
16:35	95.4	95.4	103.4	46	71.3	1	3	270	0.00	29.903 
16:40	94.3	94.3	101.7	47	70.9	2	5	270	0.00	29.903 
16:45	93.2	93.2	100.5	49	71.1	4	7	270	0.00	29.908 
16:50	92.3	92.3	98.6	49	70.3	3	6	270	0.00	29.908 
16:55	92.1	92.1	98.2	49	70.1	2	5	270	0.00	29.908 
17:00	91.8	91.8	98.1	50	70.5	1	4	270	0.00	29.904 
17:05	91.4	91.4	97.3	50	70.1	3	9	270	0.00	29.904 
17:10	91.2	91.2	98.0	52	71.1	2	5	292	0.00	29.904 
17:15	91.2	91.2	98.0	52	71.1	2	5	292	0.00	29.892 
17:20	91.4	91.4	99.5	54	72.4	1	4	270	0.00	29.892 
17:25	92.1	92.1	100.5	53	72.5	3	10	270	0.00	29.892 
17:30	92.5	92.5	100.2	51	71.7	3	7	270	0.00	29.883 
17:35	92.3	92.3	99.7	51	71.5	3	6	270	0.00	29.883 
17:40	92.1	92.1	99.9	52	71.9	4	7	270	0.00	29.883 
17:45	91.8	91.8	99.8	53	72.2	3	7	270	0.00	29.892 
17:50	91.8	91.8	100.4	54	72.7	4	8	270	0.00	29.892 
17:55	91.2	91.2	99.6	55	72.7	2	6	270	0.00	29.892 
18:00	90.5	90.5	97.5	54	71.5	3	6	270	0.00	29.901 
18:05	90.3	90.3	97.1	54	71.4	3	5	270	0.00	29.901 
18:10	89.9	89.9	96.3	54	71.0	2	4	270	0.00	29.901 
18:15	89.7	89.7	95.9	54	70.8	3	6	270	0.00	29.888 
18:20	89.7	89.7	96.4	55	71.3	2	6	292	0.00	29.888 
18:25	89.5	89.5	96.4	56	71.7	2	5	292	0.00	29.888 
18:30	89.5	89.5	96.9	57	72.2	2	5	270	0.00	29.901 
18:35	89.3	89.3	97.0	58	72.5	2	6	270	0.00	29.901 
18:40	88.8	88.8	95.9	58	72.1	2	4	270	0.00	29.901 
18:45	88.6	88.6	96.0	59	72.4	2	6	292	0.00	29.902 
18:50	88.2	88.2	96.1	61	73.0	2	5	270	0.00	29.902 
18:55	87.8	87.8	95.6	62	73.1	2	6	270	0.00	29.902 
19:00	87.0	87.0	94.3	63	72.8	2	5	292	0.00	29.919 
19:05	85.5	85.5	90.2	60	70.0	2	9	315	0.00	29.919 
19:10	84.0	84.0	88.4	63	70.0	1	5	315	0.00	29.919 
19:15	83.2	83.2	87.2	64	69.7	0	2	0	0.00	29.921 
19:20	82.6	82.6	86.4	65	69.6	0	2	0	0.00	29.921 
19:25	82.2	82.2	85.9	66	69.7	0	1	0	0.00	29.921 
19:30	81.8	81.8	85.5	67	69.7	0	3	90	0.00	29.912 
19:35	81.6	81.6	85.1	67	69.6	0	1	90	0.00	29.912 
19:40	81.4	81.4	85.0	68	69.8	0	2	90	0.00	29.912 
19:45	81.2	81.2	84.6	68	69.6	0	1	90	0.00	29.914 
19:50	81.1	81.1	84.5	68	69.5	0	0	---	0.00	29.914 
19:55	80.9	80.9	84.3	69	69.8	0	0	---	0.00	29.914 
20:00	80.7	80.7	84.0	69	69.6	0	2	90	0.00	29.923 
20:05	80.1	80.1	83.0	69	69.0	0	1	90	0.00	29.923 
20:10	79.9	79.9	82.8	70	69.2	0	1	90	0.00	29.923 
20:15	79.6	79.6	82.4	71	69.3	0	0	---	0.00	29.925 
20:20	79.4	79.4	82.1	71	69.2	0	1	90	0.00	29.925 
20:25	79.2	79.2	81.9	72	69.4	0	0	---	0.00	29.925 
20:30	79.2	79.2	81.9	72	69.4	0	1	90	0.00	29.928 
20:35	79.0	79.0	81.6	72	69.2	0	0	---	0.00	29.928 
20:40	79.0	79.0	81.6	72	69.2	0	0	---	0.00	29.928 
20:45	79.0	79.0	81.6	72	69.2	0	1	90	0.00	29.923 
20:50	79.0	79.0	81.6	73	69.6	0	0	---	0.00	29.923 
20:55	78.8	78.8	81.3	72	69.0	0	0	---	0.00	29.923 
21:00	79.0	79.0	81.6	72	69.2	0	0	---	0.00	29.912 
21:05	79.0	79.0	81.6	72	69.2	0	0	---	0.00	29.912 
21:10	79.0	79.0	81.6	73	69.6	0	1	90	0.00	29.912 
21:15	79.0	79.0	81.6	73	69.6	0	1	90	0.00	29.905 
21:20	79.0	79.0	81.7	74	70.0	0	1	90	0.00	29.905 
21:25	78.8	78.8	81.4	74	69.8	0	0	---	0.00	29.905 
21:30	78.8	78.8	81.5	75	70.2	0	1	90	0.00	29.920 
21:35	78.6	78.6	81.2	76	70.4	0	1	90	0.00	29.920 
21:40	78.5	78.5	81.0	76	70.3	0	1	90	0.00	29.920 
21:45	78.3	78.3	80.7	77	70.5	0	0	---	0.00	29.923 
21:50	78.3	78.3	80.7	77	70.5	0	0	---	0.00	29.923 
21:55	78.1	78.1	80.4	77	70.3	0	1	90	0.00	29.923 
22:00	78.1	78.1	80.4	78	70.7	0	0	---	0.00	29.927 
22:05	77.9	77.9	80.1	78	70.5	0	0	---	0.00	29.927 
22:10	77.9	77.9	80.1	78	70.5	0	1	90	0.00	29.927 
22:15	77.7	77.7	79.8	79	70.7	0	0	---	0.00	29.937 
22:20	77.7	77.7	79.8	79	70.7	0	0	---	0.00	29.937 
22:25	77.6	77.6	79.6	79	70.6	0	0	---	0.00	29.937 
22:30	77.6	77.6	79.6	79	70.6	0	0	---	0.00	29.950 
22:35	77.6	77.6	79.6	80	70.9	0	1	90	0.00	29.950 
22:40	77.6	77.6	79.6	80	70.9	0	1	90	0.00	29.950 
22:45	77.6	77.6	79.6	81	71.3	0	1	90	0.00	29.967 
22:50	77.4	77.4	79.2	81	71.1	0	1	90	0.00	29.967 
22:55	77.4	77.4	79.2	81	71.1	0	1	90	0.00	29.967 
23:00	77.4	77.4	79.2	82	71.5	0	0	---	0.00	29.973 
23:05	77.4	77.4	79.2	82	71.5	0	1	90	0.00	29.973 
23:10	77.4	77.4	79.2	82	71.5	0	0	---	0.00	29.973 
23:15	77.4	77.4	79.2	82	71.5	0	0	---	0.00	29.977 
23:20	77.4	77.4	79.2	82	71.5	0	0	---	0.00	29.977 
23:25	77.4	77.4	79.2	82	71.5	0	0	---	0.00	29.977 
23:30	77.4	77.4	79.2	83	71.8	0	0	---	0.00	29.980 
23:35	77.4	77.4	79.2	83	71.8	0	0	---	0.00	29.980 
23:40	77.2	77.2	78.8	83	71.6	0	0	---	0.00	29.980 
23:45	77.2	77.2	78.8	83	71.6	0	0	---	0.00	29.980 
23:50	77.0	77.0	78.4	84	71.8	0	0	---	0.00	29.980 
23:55	77.0	77.0	78.4	84	71.8	0	0	---	0.00	29.980 

CoCoRaHS
IN-AL-39
A2 Web Hosting
Creative Commons License
GoDaddy
search engine by freefind advanced

loaded 2018-11-16 23:33:55 • last modified 2010-11-18 10:43:29
Privacy PolicyDisclaimer
• wx.awcolley.com is powered by PmWiki v.2002016 •
• all content (unless otherwise noted) © 2018 A W Colley